createdAt,value
2019-01-25T00:01:04.278Z,-1.70
2019-01-25T00:03:33.252Z,-1.70
2019-01-25T00:06:02.395Z,-1.70
2019-01-25T00:08:31.398Z,-1.70
2019-01-25T00:11:00.501Z,-1.60
2019-01-25T00:13:29.679Z,-1.60
2019-01-25T00:15:58.883Z,-1.60
2019-01-25T00:18:28.070Z,-1.60
2019-01-25T00:20:57.074Z,-1.50
2019-01-25T00:23:26.238Z,-1.50
2019-01-25T00:25:55.429Z,-1.40
2019-01-25T00:28:24.628Z,-1.50
2019-01-25T00:30:53.666Z,-1.50
2019-01-25T00:33:22.964Z,-1.50
2019-01-25T00:35:53.403Z,-1.60
2019-01-25T00:38:22.450Z,-1.60
2019-01-25T00:40:51.597Z,-1.50
2019-01-25T00:43:20.725Z,-1.50
2019-01-25T00:45:49.943Z,-1.40
2019-01-25T00:48:19.025Z,-1.50
2019-01-25T00:50:48.307Z,-1.50
2019-01-25T00:53:18.576Z,-1.50
2019-01-25T00:55:47.756Z,-1.50
2019-01-25T00:58:16.798Z,-1.60
2019-01-25T01:00:45.905Z,-1.70
2019-01-25T01:03:15.126Z,-1.70
2019-01-25T01:05:44.287Z,-1.70
2019-01-25T01:08:13.496Z,-1.70
2019-01-25T01:10:42.527Z,-1.70
2019-01-25T01:13:11.607Z,-1.70
2019-01-25T01:15:40.795Z,-1.70
2019-01-25T01:18:09.911Z,-1.70
2019-01-25T01:20:39.073Z,-1.70
2019-01-25T01:23:08.281Z,-1.70
2019-01-25T01:25:37.449Z,-1.60
2019-01-25T01:28:06.671Z,-1.60
2019-01-25T01:30:35.631Z,-1.50
2019-01-25T01:33:04.994Z,-1.50
2019-01-25T01:35:34.186Z,-1.40
2019-01-25T01:38:03.405Z,-1.40
2019-01-25T01:40:34.546Z,-1.40
2019-01-25T01:43:03.888Z,-1.40
2019-01-25T01:45:33.098Z,-1.40
2019-01-25T01:48:02.097Z,-1.50
2019-01-25T01:50:31.353Z,-1.50
2019-01-25T01:53:02.395Z,-1.50
2019-01-25T01:55:31.401Z,-1.50
2019-01-25T01:58:00.431Z,-1.60
2019-01-25T02:00:29.606Z,-1.50
2019-01-25T02:02:58.777Z,-1.50
2019-01-25T02:05:27.953Z,-1.50
2019-01-25T02:07:57.146Z,-1.40
2019-01-25T02:10:29.446Z,-1.40
2019-01-25T02:12:58.663Z,-1.40
2019-01-25T02:15:27.809Z,-1.40
2019-01-25T02:17:56.919Z,-1.40
2019-01-25T02:20:28.193Z,-1.40
2019-01-25T02:22:57.668Z,-1.40
2019-01-25T02:25:26.845Z,-1.40
2019-01-25T02:27:56.052Z,-1.40
2019-01-25T02:30:26.430Z,-1.30
2019-01-25T02:32:55.740Z,-1.30
2019-01-25T02:35:25.106Z,-1.30
2019-01-25T02:37:54.341Z,-1.30
2019-01-25T02:40:25.118Z,-1.30
2019-01-25T02:42:54.694Z,-1.30
2019-01-25T02:45:23.939Z,-1.30
2019-01-25T02:47:53.031Z,-1.40
2019-01-25T02:50:22.133Z,-1.40
2019-01-25T02:52:51.307Z,-1.40
2019-01-25T02:55:20.971Z,-1.40
2019-01-25T02:57:50.024Z,-1.50
2019-01-25T03:00:24.260Z,-1.40
2019-01-25T03:02:54.248Z,-1.40
2019-01-25T03:05:24.093Z,-1.40
2019-01-25T03:07:53.457Z,-1.40
2019-01-25T03:10:28.455Z,-1.50
2019-01-25T03:12:55.617Z,-1.50
2019-01-25T03:15:26.409Z,-1.40
2019-01-25T03:17:55.724Z,-1.50
2019-01-25T03:20:25.186Z,-1.50
2019-01-25T03:22:54.265Z,-1.50
2019-01-25T03:25:25.900Z,-1.50
2019-01-25T03:27:55.091Z,-1.50
2019-01-25T03:30:25.470Z,-1.40
2019-01-25T03:32:54.888Z,-1.40
2019-01-25T03:35:25.496Z,-1.40
2019-01-25T03:37:55.252Z,-1.50
2019-01-25T03:40:26.465Z,-1.50
2019-01-25T03:42:55.715Z,-1.40
2019-01-25T03:45:25.693Z,-1.40
2019-01-25T03:47:54.785Z,-1.30
2019-01-25T03:50:26.833Z,-1.30
2019-01-25T03:52:56.237Z,-1.30
2019-01-25T03:55:25.421Z,-1.30
2019-01-25T03:57:54.509Z,-1.30
2019-01-25T04:00:25.284Z,-1.40
2019-01-25T04:02:54.485Z,-1.40
2019-01-25T04:05:23.761Z,-1.40
2019-01-25T04:07:52.850Z,-1.40
2019-01-25T04:10:23.482Z,-1.30
2019-01-25T04:12:52.717Z,-1.30
2019-01-25T04:15:23.834Z,-1.30
2019-01-25T04:17:53.022Z,-1.40
2019-01-25T04:20:22.476Z,-1.40
2019-01-25T04:22:52.074Z,-1.40
2019-01-25T04:25:22.015Z,-1.40
2019-01-25T04:27:51.639Z,-1.40
2019-01-25T04:30:25.634Z,-1.40
2019-01-25T04:32:54.789Z,-1.40
2019-01-25T04:35:24.027Z,-1.40
2019-01-25T04:37:53.273Z,-1.40
2019-01-25T04:40:22.578Z,-1.40
2019-01-25T04:42:51.802Z,-1.50
2019-01-25T04:45:21.958Z,-1.50
2019-01-25T04:47:51.404Z,-1.50
2019-01-25T04:50:22.197Z,-1.40
2019-01-25T04:52:51.784Z,-1.40
2019-01-25T04:55:38.913Z,-1.50
2019-01-25T04:58:15.991Z,-1.50
2019-01-25T05:00:45.156Z,-1.50
2019-01-25T05:03:14.319Z,-1.50
2019-01-25T05:05:43.598Z,-1.60
2019-01-25T05:08:17.743Z,-1.60
2019-01-25T05:10:46.906Z,-1.50
2019-01-25T05:13:16.050Z,-1.50
2019-01-25T05:15:45.314Z,-1.40
2019-01-25T05:18:14.710Z,-1.40
2019-01-25T05:20:43.901Z,-1.30
2019-01-25T05:23:15.841Z,-1.40
2019-01-25T05:25:44.983Z,-1.40
2019-01-25T05:28:15.888Z,-1.40
2019-01-25T05:30:59.490Z,-1.50
2019-01-25T05:33:28.682Z,-1.40
2019-01-25T05:35:57.833Z,-1.50
2019-01-25T05:38:27.001Z,-1.50
2019-01-25T05:40:56.103Z,-1.50
2019-01-25T05:43:26.152Z,-1.50
2019-01-25T05:45:55.323Z,-1.60
2019-01-25T05:48:29.648Z,-1.60
2019-01-25T05:51:02.611Z,-1.70
2019-01-25T05:53:31.787Z,-1.60
2019-01-25T05:56:00.924Z,-1.70
2019-01-25T05:58:29.959Z,-1.60
2019-01-25T06:01:00.021Z,-1.60
2019-01-25T06:03:29.639Z,-1.50
2019-01-25T06:06:03.851Z,-1.50
2019-01-25T06:08:43.599Z,-1.50
2019-01-25T06:11:11.105Z,-1.50
2019-01-25T06:13:41.472Z,-1.50
2019-01-25T06:16:10.725Z,-1.50
2019-01-25T06:18:42.327Z,-1.50
2019-01-25T06:21:11.630Z,-1.60
2019-01-25T06:23:40.725Z,-1.60
2019-01-25T06:26:11.840Z,-1.50
2019-01-25T06:28:40.931Z,-1.50
2019-01-25T06:31:10.322Z,-1.50
2019-01-25T06:33:43.438Z,-1.50
2019-01-25T06:36:12.472Z,-1.50
2019-01-25T06:38:41.521Z,-1.50
2019-01-25T06:41:10.661Z,-1.60
2019-01-25T06:43:39.679Z,-1.60
2019-01-25T06:46:08.843Z,-1.60
2019-01-25T06:48:38.111Z,-1.70
2019-01-25T06:51:07.425Z,-1.80
2019-01-25T06:53:36.769Z,-1.70
2019-01-25T06:56:06.108Z,-1.80
2019-01-25T06:59:00.212Z,-1.90
2019-01-25T07:01:51.232Z,-2.00
2019-01-25T07:04:20.337Z,-2.00
2019-01-25T07:06:49.336Z,-2.10
2019-01-25T07:09:18.481Z,-2.20
2019-01-25T07:11:51.774Z,-2.10
2019-01-25T07:14:18.369Z,-2.20
2019-01-25T07:16:47.540Z,-2.20
2019-01-25T07:19:16.649Z,-2.10
2019-01-25T07:21:45.788Z,-2.00
2019-01-25T07:24:15.981Z,-2.00
2019-01-25T07:26:45.413Z,-1.90
2019-01-25T07:29:14.508Z,-1.80
2019-01-25T07:31:43.634Z,-1.90
2019-01-25T07:34:12.705Z,-1.90
2019-01-25T07:36:41.859Z,-1.90
2019-01-25T07:39:23.873Z,-1.80
2019-01-25T07:41:59.161Z,-1.80
2019-01-25T07:44:23.758Z,-1.80
2019-01-25T07:46:53.025Z,-1.80
2019-01-25T07:49:22.133Z,-1.80
2019-01-25T07:51:51.288Z,-1.90
2019-01-25T07:54:20.381Z,-1.90
2019-01-25T07:56:49.494Z,-1.80
2019-01-25T07:59:18.453Z,-1.90
2019-01-25T08:01:47.600Z,-1.80
2019-01-25T08:04:16.650Z,-1.80
2019-01-25T08:06:45.861Z,-1.90
2019-01-25T08:09:14.949Z,-1.80
2019-01-25T08:11:44.076Z,-1.80
2019-01-25T08:14:13.239Z,-1.80
2019-01-25T08:16:42.265Z,-1.90
2019-01-25T08:19:11.353Z,-2.00
2019-01-25T08:21:40.478Z,-1.90
2019-01-25T08:24:09.527Z,-1.80
2019-01-25T08:26:39.266Z,-1.90
2019-01-25T08:29:08.555Z,-1.80
2019-01-25T08:31:37.711Z,-1.80
2019-01-25T08:34:06.918Z,-1.80
2019-01-25T08:36:36.096Z,-1.80
2019-01-25T08:39:08.994Z,-1.80
2019-01-25T08:41:38.140Z,-1.70
2019-01-25T08:44:07.270Z,-1.70
2019-01-25T08:46:36.905Z,-1.70
2019-01-25T08:49:06.121Z,-1.80
2019-01-25T08:51:35.571Z,-1.80
2019-01-25T08:54:05.295Z,-1.80
2019-01-25T08:56:34.386Z,-1.70
2019-01-25T08:59:03.580Z,-1.80
2019-01-25T09:01:32.560Z,-1.70
2019-01-25T09:04:01.617Z,-1.70
2019-01-25T09:06:30.829Z,-1.60
2019-01-25T09:08:59.990Z,-1.40
2019-01-25T09:11:29.097Z,-1.30
2019-01-25T09:13:58.246Z,-1.20
2019-01-25T09:16:27.265Z,-1.10
2019-01-25T09:18:56.393Z,-1.20
2019-01-25T09:21:25.493Z,-1.10
2019-01-25T09:23:54.578Z,-1.20
2019-01-25T09:26:23.634Z,-1.10
2019-01-25T09:28:52.714Z,-1.10
2019-01-25T09:31:22.954Z,-1.00
2019-01-25T09:33:52.011Z,-1.00
2019-01-25T09:36:21.073Z,-0.90
2019-01-25T09:38:50.243Z,-0.80
2019-01-25T09:41:19.658Z,-0.70
2019-01-25T09:43:48.687Z,-0.80
2019-01-25T09:46:17.873Z,-0.70
2019-01-25T09:48:47.336Z,-0.70
2019-01-25T09:51:16.573Z,-0.90
2019-01-25T09:53:45.741Z,-1.00
2019-01-25T09:56:14.927Z,-1.00
2019-01-25T09:58:45.956Z,-1.00
2019-01-25T10:01:15.367Z,-1.00
2019-01-25T10:03:44.388Z,-1.00
2019-01-25T10:06:13.569Z,-0.80
2019-01-25T10:08:42.764Z,-0.80
2019-01-25T10:11:11.961Z,-0.80
2019-01-25T10:13:41.093Z,-0.80
2019-01-25T10:16:10.169Z,-0.80
2019-01-25T10:18:39.162Z,-0.80
2019-01-25T10:21:08.309Z,-1.00
2019-01-25T10:23:39.204Z,-1.20
2019-01-25T10:26:08.425Z,-1.10
2019-01-25T10:28:38.653Z,-1.00
2019-01-25T10:31:07.854Z,-1.10
2019-01-25T10:33:37.118Z,-1.20
2019-01-25T10:36:06.265Z,-1.30
2019-01-25T10:38:35.288Z,-1.40
2019-01-25T10:41:04.590Z,-1.30
2019-01-25T10:43:33.589Z,-1.30
2019-01-25T10:46:02.769Z,-1.30
2019-01-25T10:48:31.767Z,-1.30
2019-01-25T10:51:00.932Z,-1.20
2019-01-25T10:53:29.944Z,-1.10
2019-01-25T10:55:59.122Z,-0.90
2019-01-25T10:58:28.241Z,-0.90
2019-01-25T11:00:57.596Z,-1.10
2019-01-25T11:03:27.323Z,-1.00
2019-01-25T11:05:56.524Z,-1.00
2019-01-25T11:08:25.610Z,-0.80
2019-01-25T11:10:54.862Z,-0.80
2019-01-25T11:13:24.037Z,-0.70
2019-01-25T11:15:53.098Z,-0.60
2019-01-25T11:18:22.177Z,-0.50
2019-01-25T11:20:51.309Z,-0.40
2019-01-25T11:23:20.432Z,-0.30
2019-01-25T11:25:51.441Z,-0.20
2019-01-25T11:28:20.386Z,-0.30
2019-01-25T11:30:49.526Z,-0.40
2019-01-25T11:33:18.560Z,-0.60
2019-01-25T11:35:49.854Z,-0.40
2019-01-25T11:38:19.003Z,-0.20
2019-01-25T11:40:48.185Z,-0.10
2019-01-25T11:43:18.120Z,0.00
2019-01-25T11:45:48.524Z,-0.20
2019-01-25T11:48:17.732Z,-0.30
2019-01-25T11:50:46.820Z,-0.60
2019-01-25T11:53:15.872Z,-0.70
2019-01-25T11:55:45.044Z,-0.80
2019-01-25T11:58:14.370Z,-0.90
2019-01-25T12:00:46.398Z,-0.90
2019-01-25T12:03:15.545Z,-1.10
2019-01-25T12:05:44.618Z,-1.10
2019-01-25T12:08:14.409Z,-1.10
2019-01-25T12:10:45.137Z,-1.10
2019-01-25T12:13:16.258Z,-1.00
2019-01-25T12:15:47.032Z,-0.80
2019-01-25T12:18:16.109Z,-1.00
2019-01-25T12:20:45.261Z,-1.20
2019-01-25T12:23:14.381Z,-1.20
2019-01-25T12:25:43.509Z,-1.10
2019-01-25T12:28:13.567Z,-1.20
2019-01-25T12:30:42.891Z,-1.20
2019-01-25T12:33:12.037Z,-1.40
2019-01-25T12:35:43.049Z,-1.30
2019-01-25T12:38:12.272Z,-1.30
2019-01-25T12:40:42.430Z,-1.20
2019-01-25T12:43:11.927Z,-1.20
2019-01-25T12:45:41.192Z,-1.20
2019-01-25T12:48:10.444Z,-1.10
2019-01-25T12:50:48.969Z,-1.00
2019-01-25T12:53:16.866Z,-1.00
2019-01-25T12:55:45.909Z,-1.00
2019-01-25T12:58:14.957Z,-1.00
2019-01-25T13:00:44.040Z,-1.00
2019-01-25T13:03:13.217Z,-1.00
2019-01-25T13:05:43.305Z,-1.10
2019-01-25T13:08:12.476Z,-1.00
2019-01-25T13:10:41.569Z,-1.00
2019-01-25T13:13:10.672Z,-1.10
2019-01-25T13:15:39.824Z,-1.20
2019-01-25T13:18:08.968Z,-1.20
2019-01-25T13:20:39.659Z,-1.20
2019-01-25T13:23:09.048Z,-1.00
2019-01-25T13:25:38.116Z,-1.00
2019-01-25T13:28:07.203Z,-1.10
2019-01-25T13:30:36.333Z,-1.00
2019-01-25T13:33:05.734Z,-1.00
2019-01-25T13:35:34.799Z,-1.30
2019-01-25T13:38:04.429Z,-1.40
2019-01-25T13:40:33.541Z,-1.30
2019-01-25T13:43:02.626Z,-1.20
2019-01-25T13:45:31.789Z,-1.40
2019-01-25T13:48:00.932Z,-1.50
2019-01-25T13:50:30.241Z,-1.50
2019-01-25T13:52:59.250Z,-1.60
2019-01-25T13:55:28.388Z,-1.60
2019-01-25T13:57:57.432Z,-1.50
2019-01-25T14:00:28.893Z,-1.70
2019-01-25T14:02:58.176Z,-1.80
2019-01-25T14:05:27.513Z,-1.70
2019-01-25T14:07:56.820Z,-1.80
2019-01-25T14:10:30.713Z,-1.80
2019-01-25T14:12:59.812Z,-1.70
2019-01-25T14:15:29.118Z,-1.60
2019-01-25T14:17:58.425Z,-1.60
2019-01-25T14:20:29.193Z,-1.50
2019-01-25T14:22:58.317Z,-1.50
2019-01-25T14:25:27.694Z,-1.60
2019-01-25T14:27:56.856Z,-1.70
2019-01-25T14:30:34.496Z,-1.60
2019-01-25T14:33:03.963Z,-1.50
2019-01-25T14:35:33.049Z,-1.50
2019-01-25T14:38:02.312Z,-1.50
2019-01-25T14:40:31.487Z,-1.40
2019-01-25T14:43:00.552Z,-1.50
2019-01-25T14:45:29.614Z,-1.60
2019-01-25T14:47:58.716Z,-1.70
2019-01-25T14:50:28.744Z,-1.70
2019-01-25T14:52:59.171Z,-1.70
2019-01-25T14:55:28.571Z,-1.70
2019-01-25T14:57:58.241Z,-1.80
2019-01-25T15:00:27.362Z,-1.70
2019-01-25T15:02:56.546Z,-1.70
2019-01-25T15:05:26.982Z,-1.70
2019-01-25T15:07:56.018Z,-1.70
2019-01-25T15:10:25.961Z,-1.80
2019-01-25T15:12:58.936Z,-1.70
2019-01-25T15:15:28.510Z,-1.70
2019-01-25T15:17:57.685Z,-1.90
2019-01-25T15:20:28.915Z,-1.80
2019-01-25T15:22:58.059Z,-1.90
2019-01-25T15:25:27.260Z,-2.00
2019-01-25T15:27:56.386Z,-2.00
2019-01-25T15:30:27.779Z,-2.00
2019-01-25T15:32:56.937Z,-2.00
2019-01-25T15:35:26.202Z,-1.90
2019-01-25T15:37:55.367Z,-1.90
2019-01-25T15:40:24.820Z,-1.80
2019-01-25T15:42:54.953Z,-1.70
2019-01-25T15:45:24.286Z,-1.70
2019-01-25T15:47:53.450Z,-1.80
2019-01-25T15:50:24.833Z,-1.90
2019-01-25T15:52:53.960Z,-1.90
2019-01-25T15:55:23.518Z,-1.90
2019-01-25T15:57:52.603Z,-1.90
2019-01-25T16:00:22.969Z,-1.90
2019-01-25T16:02:52.117Z,-1.80
2019-01-25T16:05:24.070Z,-1.80
2019-01-25T16:07:53.194Z,-1.90
2019-01-25T16:10:22.936Z,-2.00
2019-01-25T16:12:52.512Z,-2.00
2019-01-25T16:15:23.964Z,-2.10
2019-01-25T16:17:53.355Z,-2.10
2019-01-25T16:20:25.747Z,-2.10
2019-01-25T16:22:55.071Z,-2.10
2019-01-25T16:25:27.085Z,-2.00
2019-01-25T16:27:56.224Z,-1.80
2019-01-25T16:30:27.647Z,-1.80
2019-01-25T16:32:56.724Z,-1.70
2019-01-25T16:35:26.937Z,-1.60
2019-01-25T16:37:56.754Z,-1.60
2019-01-25T16:40:26.926Z,-1.80
2019-01-25T16:42:57.898Z,-1.70
2019-01-25T16:45:41.156Z,-1.70
2019-01-25T16:48:10.634Z,-1.60
2019-01-25T16:50:40.020Z,-1.70
2019-01-25T16:53:11.421Z,-1.70
2019-01-25T16:55:40.665Z,-1.60
2019-01-25T16:58:09.909Z,-1.60
2019-01-25T17:00:41.548Z,-1.60
2019-01-25T17:03:10.828Z,-1.60
2019-01-25T17:05:40.149Z,-1.60
2019-01-25T17:08:09.321Z,-1.50
2019-01-25T17:10:38.530Z,-1.40
2019-01-25T17:13:07.693Z,-1.40
2019-01-25T17:15:36.717Z,-1.30
2019-01-25T17:18:08.058Z,-1.30
2019-01-25T17:20:37.198Z,-1.30
2019-01-25T17:23:06.368Z,-1.30
2019-01-25T17:25:35.582Z,-1.30
2019-01-25T17:28:06.244Z,-1.30
2019-01-25T17:30:36.068Z,-1.30
2019-01-25T17:33:05.440Z,-1.30
2019-01-25T17:35:34.801Z,-1.30
2019-01-25T17:38:10.943Z,-1.40
2019-01-25T17:40:46.961Z,-1.40
2019-01-25T17:43:16.548Z,-1.40
2019-01-25T17:45:45.657Z,-1.40
2019-01-25T17:48:14.696Z,-1.30
2019-01-25T17:50:43.889Z,-1.30
2019-01-25T17:53:12.946Z,-1.20
2019-01-25T17:55:42.081Z,-1.20
2019-01-25T17:58:11.185Z,-1.40
2019-01-25T18:00:44.321Z,-1.20
2019-01-25T18:03:14.908Z,-1.30
2019-01-25T18:05:45.956Z,-1.40
2019-01-25T18:08:14.705Z,-1.30
2019-01-25T18:10:43.857Z,-1.30
2019-01-25T18:13:13.122Z,-1.40
2019-01-25T18:15:42.251Z,-1.40
2019-01-25T18:18:11.681Z,-1.40
2019-01-25T18:20:41.036Z,-1.50
2019-01-25T18:23:10.086Z,-1.40
2019-01-25T18:25:48.190Z,-1.30
2019-01-25T18:28:21.049Z,-1.20
2019-01-25T18:30:54.261Z,-1.10
2019-01-25T18:33:23.367Z,-1.10
2019-01-25T18:35:52.590Z,-1.10
2019-01-25T18:38:21.805Z,-1.10
2019-01-25T18:40:50.964Z,-1.00
2019-01-25T18:43:20.650Z,-1.00
2019-01-25T18:45:49.721Z,-1.00
2019-01-25T18:48:18.844Z,-0.90
2019-01-25T18:50:47.991Z,-0.90
2019-01-25T18:53:17.215Z,-1.00
2019-01-25T18:55:46.308Z,-1.00
2019-01-25T18:58:15.381Z,-0.90
2019-01-25T19:00:44.557Z,-0.90
2019-01-25T19:03:13.692Z,-1.00
2019-01-25T19:05:42.768Z,-1.00
2019-01-25T19:08:11.900Z,-1.00
2019-01-25T19:10:41.243Z,-1.10
2019-01-25T19:13:10.393Z,-1.10
2019-01-25T19:15:39.459Z,-1.10
2019-01-25T19:18:08.672Z,-1.10
2019-01-25T19:20:37.793Z,-1.20
2019-01-25T19:23:06.935Z,-1.20
2019-01-25T19:25:36.031Z,-1.10
2019-01-25T19:28:05.184Z,-1.10
2019-01-25T19:30:36.936Z,-1.10
2019-01-25T19:33:06.360Z,-1.10
2019-01-25T19:35:35.615Z,-1.20
2019-01-25T19:38:05.476Z,-1.20
2019-01-25T19:40:35.057Z,-1.10
2019-01-25T19:43:04.572Z,-1.40
2019-01-25T19:45:33.657Z,-1.40
2019-01-25T19:48:02.800Z,-1.60
2019-01-25T19:50:32.436Z,-1.60
2019-01-25T19:53:01.621Z,-1.60
2019-01-25T19:55:30.857Z,-1.70
2019-01-25T19:58:00.384Z,-1.80
2019-01-25T20:00:32.142Z,-1.80
2019-01-25T20:03:01.533Z,-1.80
2019-01-25T20:05:31.459Z,-1.70
2019-01-25T20:08:00.744Z,-1.70
2019-01-25T20:10:30.079Z,-1.80
2019-01-25T20:12:59.269Z,-1.80
2019-01-25T20:15:28.603Z,-1.80
2019-01-25T20:17:59.316Z,-2.00
2019-01-25T20:20:30.980Z,-2.00
2019-01-25T20:23:00.273Z,-2.00
2019-01-25T20:25:29.339Z,-2.10
2019-01-25T20:27:58.406Z,-2.10
2019-01-25T20:30:29.514Z,-2.10
2019-01-25T20:32:59.858Z,-2.10
2019-01-25T20:35:31.196Z,-2.10
2019-01-25T20:38:00.296Z,-2.20
2019-01-25T20:40:29.477Z,-2.20
2019-01-25T20:42:58.666Z,-2.20
2019-01-25T20:45:30.029Z,-2.20
2019-01-25T20:47:59.123Z,-2.20
2019-01-25T20:50:29.341Z,-2.20
2019-01-25T20:52:58.469Z,-2.20
2019-01-25T20:55:27.701Z,-2.20
2019-01-25T20:57:58.583Z,-2.20
2019-01-25T21:00:30.367Z,-2.20
2019-01-25T21:02:59.578Z,-2.20
2019-01-25T21:05:28.975Z,-2.20
2019-01-25T21:07:58.720Z,-2.10
2019-01-25T21:10:27.909Z,-2.10
2019-01-25T21:12:57.422Z,-2.20
2019-01-25T21:15:34.858Z,-2.20
2019-01-25T21:17:58.215Z,-2.20
2019-01-25T21:20:32.612Z,-2.20
2019-01-25T21:23:02.301Z,-2.20
2019-01-25T21:25:31.660Z,-2.20
2019-01-25T21:28:00.847Z,-2.30
2019-01-25T21:30:31.610Z,-2.20
2019-01-25T21:33:02.631Z,-2.20
2019-01-25T21:35:31.688Z,-2.10
2019-01-25T21:38:00.858Z,-2.10
2019-01-25T21:40:31.201Z,-2.20
2019-01-25T21:43:00.344Z,-2.20
2019-01-25T21:45:34.623Z,-2.20
2019-01-25T21:48:06.376Z,-2.20
2019-01-25T21:50:37.758Z,-2.10
2019-01-25T21:53:07.565Z,-2.10
2019-01-25T21:55:36.802Z,-2.10
2019-01-25T21:58:06.036Z,-2.20
2019-01-25T22:00:35.523Z,-2.20
2019-01-25T22:03:05.964Z,-2.20
2019-01-25T22:05:35.177Z,-2.20
2019-01-25T22:08:06.187Z,-2.20
2019-01-25T22:10:38.296Z,-2.10
2019-01-25T22:13:07.529Z,-2.00
2019-01-25T22:15:36.625Z,-2.00
2019-01-25T22:18:06.032Z,-2.00
2019-01-25T22:20:35.128Z,-2.00
2019-01-25T22:23:04.497Z,-2.10
2019-01-25T22:25:33.589Z,-2.00
2019-01-25T22:28:02.718Z,-2.00
2019-01-25T22:30:31.820Z,-2.00
2019-01-25T22:33:01.018Z,-2.00
2019-01-25T22:35:30.097Z,-2.00
2019-01-25T22:37:59.209Z,-2.00
2019-01-25T22:40:30.457Z,-2.00
2019-01-25T22:42:59.779Z,-1.90
2019-01-25T22:45:30.626Z,-1.80
2019-01-25T22:48:01.420Z,-1.90
2019-01-25T22:50:35.859Z,-1.90
2019-01-25T22:53:05.137Z,-1.80
2019-01-25T22:55:35.285Z,-1.70
2019-01-25T22:58:04.843Z,-1.60
2019-01-25T23:00:58.378Z,-1.60
2019-01-25T23:03:53.023Z,-1.60
2019-01-25T23:06:36.404Z,-1.60
2019-01-25T23:09:14.629Z,-1.50
2019-01-25T23:11:43.712Z,-1.50
2019-01-25T23:14:12.942Z,-1.50
2019-01-25T23:16:42.072Z,-1.50
2019-01-25T23:19:11.556Z,-1.50
2019-01-25T23:21:40.683Z,-1.50
2019-01-25T23:24:09.836Z,-1.40
2019-01-25T23:26:39.386Z,-1.40
2019-01-25T23:29:08.796Z,-1.30
2019-01-25T23:31:38.095Z,-1.30
2019-01-25T23:34:07.480Z,-1.40
2019-01-25T23:36:36.602Z,-1.40
2019-01-25T23:39:09.802Z,-1.30
2019-01-25T23:41:42.424Z,-1.30
2019-01-25T23:44:12.951Z,-1.30
2019-01-25T23:46:42.368Z,-1.30
2019-01-25T23:49:11.615Z,-1.30
2019-01-25T23:51:40.585Z,-1.20
2019-01-25T23:54:09.704Z,-1.20
2019-01-25T23:56:38.827Z,-1.20
2019-01-25T23:59:07.780Z,-1.20
